sensor_id;sensor_type;location;lat;lon;timestamp;P1;durP1;ratioP1;P2;durP2;ratioP2
15228;SDS011;7717;47.792;12.076;2022-07-29T00:02:04;3.07;;;2.00;;
15228;SDS011;7717;47.792;12.076;2022-07-29T00:04:30;2.77;;;2.37;;
15228;SDS011;7717;47.792;12.076;2022-07-29T00:06:55;2.50;;;2.13;;
15228;SDS011;7717;47.792;12.076;2022-07-29T00:09:20;2.63;;;2.30;;
15228;SDS011;7717;47.792;12.076;2022-07-29T00:11:45;3.10;;;2.30;;
15228;SDS011;7717;47.792;12.076;2022-07-29T00:14:10;2.20;;;1.90;;
15228;SDS011;7717;47.792;12.076;2022-07-29T00:16:36;3.33;;;2.60;;
15228;SDS011;7717;47.792;12.076;2022-07-29T00:19:01;3.70;;;2.40;;
15228;SDS011;7717;47.792;12.076;2022-07-29T00:21:26;3.13;;;2.40;;
15228;SDS011;7717;47.792;12.076;2022-07-29T00:23:52;2.40;;;2.20;;
15228;SDS011;7717;47.792;12.076;2022-07-29T00:26:17;2.80;;;2.50;;
15228;SDS011;7717;47.792;12.076;2022-07-29T00:28:42;2.80;;;2.60;;
15228;SDS011;7717;47.792;12.076;2022-07-29T00:31:07;2.70;;;2.50;;
15228;SDS011;7717;47.792;12.076;2022-07-29T00:33:33;4.37;;;1.90;;
15228;SDS011;7717;47.792;12.076;2022-07-29T00:35:58;3.57;;;2.40;;
15228;SDS011;7717;47.792;12.076;2022-07-29T00:38:23;3.80;;;2.67;;
15228;SDS011;7717;47.792;12.076;2022-07-29T00:40:49;2.80;;;2.50;;
15228;SDS011;7717;47.792;12.076;2022-07-29T00:43:14;2.77;;;2.57;;
15228;SDS011;7717;47.792;12.076;2022-07-29T00:45:40;2.60;;;2.40;;
15228;SDS011;7717;47.792;12.076;2022-07-29T00:48:05;2.90;;;2.57;;
15228;SDS011;7717;47.792;12.076;2022-07-29T00:50:32;2.37;;;2.17;;
15228;SDS011;7717;47.792;12.076;2022-07-29T00:52:57;2.47;;;2.17;;
15228;SDS011;7717;47.792;12.076;2022-07-29T00:55:23;2.93;;;2.50;;
15228;SDS011;7717;47.792;12.076;2022-07-29T00:57:48;2.77;;;2.30;;
15228;SDS011;7717;47.792;12.076;2022-07-29T01:00:16;2.53;;;2.00;;
15228;SDS011;7717;47.792;12.076;2022-07-29T01:02:42;2.27;;;2.07;;
15228;SDS011;7717;47.792;12.076;2022-07-29T01:05:07;2.33;;;2.20;;
15228;SDS011;7717;47.792;12.076;2022-07-29T01:07:34;3.00;;;2.40;;
15228;SDS011;7717;47.792;12.076;2022-07-29T01:09:59;1.97;;;1.87;;
15228;SDS011;7717;47.792;12.076;2022-07-29T01:12:25;2.13;;;2.00;;
15228;SDS011;7717;47.792;12.076;2022-07-29T01:14:51;2.63;;;2.07;;
15228;SDS011;7717;47.792;12.076;2022-07-29T01:20:10;1.93;;;1.80;;
15228;SDS011;7717;47.792;12.076;2022-07-29T01:27:47;2.10;;;2.00;;
15228;SDS011;7717;47.792;12.076;2022-07-29T01:30:15;2.30;;;2.10;;
15228;SDS011;7717;47.792;12.076;2022-07-29T01:32:40;2.07;;;1.97;;
15228;SDS011;7717;47.792;12.076;2022-07-29T01:35:10;2.10;;;2.00;;
15228;SDS011;7717;47.792;12.076;2022-07-29T01:40:07;2.80;;;2.17;;
15228;SDS011;7717;47.792;12.076;2022-07-29T01:42:38;2.53;;;1.70;;
15228;SDS011;7717;47.792;12.076;2022-07-29T01:47:33;3.90;;;2.20;;
15228;SDS011;7717;47.792;12.076;2022-07-29T01:49:59;2.40;;;1.80;;
15228;SDS011;7717;47.792;12.076;2022-07-29T01:52:28;3.07;;;2.10;;
15228;SDS011;7717;47.792;12.076;2022-07-29T01:54:57;1.97;;;1.87;;
15228;SDS011;7717;47.792;12.076;2022-07-29T01:57:27;2.20;;;2.00;;
15228;SDS011;7717;47.792;12.076;2022-07-29T01:59:53;2.10;;;1.90;;
15228;SDS011;7717;47.792;12.076;2022-07-29T02:02:19;1.90;;;1.80;;
15228;SDS011;7717;47.792;12.076;2022-07-29T02:04:44;2.87;;;2.10;;
15228;SDS011;7717;47.792;12.076;2022-07-29T02:07:13;2.13;;;1.93;;
15228;SDS011;7717;47.792;12.076;2022-07-29T02:09:40;2.30;;;1.97;;
15228;SDS011;7717;47.792;12.076;2022-07-29T02:12:06;2.30;;;2.10;;
15228;SDS011;7717;47.792;12.076;2022-07-29T02:14:33;1.90;;;1.80;;
15228;SDS011;7717;47.792;12.076;2022-07-29T02:16:59;2.27;;;1.97;;
15228;SDS011;7717;47.792;12.076;2022-07-29T02:19:25;2.20;;;2.00;;
15228;SDS011;7717;47.792;12.076;2022-07-29T02:21:51;2.60;;;1.93;;
15228;SDS011;7717;47.792;12.076;2022-07-29T02:24:18;2.10;;;1.83;;
15228;SDS011;7717;47.792;12.076;2022-07-29T02:26:44;2.37;;;1.67;;
15228;SDS011;7717;47.792;12.076;2022-07-29T02:29:10;2.20;;;2.00;;
15228;SDS011;7717;47.792;12.076;2022-07-29T02:31:36;2.83;;;1.80;;
15228;SDS011;7717;47.792;12.076;2022-07-29T02:34:05;2.00;;;1.80;;
15228;SDS011;7717;47.792;12.076;2022-07-29T02:36:30;1.90;;;1.80;;
15228;SDS011;7717;47.792;12.076;2022-07-29T02:38:56;1.80;;;1.70;;
15228;SDS011;7717;47.792;12.076;2022-07-29T02:44:26;4.47;;;2.30;;
15228;SDS011;7717;47.792;12.076;2022-07-29T02:46:58;2.37;;;2.17;;
15228;SDS011;7717;47.792;12.076;2022-07-29T02:51:58;2.33;;;2.13;;
15228;SDS011;7717;47.792;12.076;2022-07-29T02:54:38;3.37;;;2.30;;
15228;SDS011;7717;47.792;12.076;2022-07-29T02:57:06;3.37;;;2.37;;
15228;SDS011;7717;47.792;12.076;2022-07-29T02:59:34;2.83;;;2.63;;
15228;SDS011;7717;47.792;12.076;2022-07-29T03:02:01;3.20;;;2.90;;
15228;SDS011;7717;47.792;12.076;2022-07-29T03:04:27;3.40;;;3.10;;
15228;SDS011;7717;47.792;12.076;2022-07-29T03:06:54;5.40;;;3.13;;
15228;SDS011;7717;47.792;12.076;2022-07-29T03:09:20;2.87;;;2.67;;
15228;SDS011;7717;47.792;12.076;2022-07-29T03:11:46;3.17;;;2.93;;
15228;SDS011;7717;47.792;12.076;2022-07-29T03:14:12;2.70;;;2.50;;
15228;SDS011;7717;47.792;12.076;2022-07-29T03:16:37;3.00;;;2.67;;
15228;SDS011;7717;47.792;12.076;2022-07-29T03:19:03;3.23;;;2.93;;
15228;SDS011;7717;47.792;12.076;2022-07-29T03:21:29;2.43;;;2.10;;
15228;SDS011;7717;47.792;12.076;2022-07-29T03:23:54;3.63;;;2.40;;
15228;SDS011;7717;47.792;12.076;2022-07-29T03:26:19;4.63;;;2.53;;
15228;SDS011;7717;47.792;12.076;2022-07-29T03:28:45;2.50;;;2.30;;
15228;SDS011;7717;47.792;12.076;2022-07-29T03:31:10;2.47;;;2.00;;
15228;SDS011;7717;47.792;12.076;2022-07-29T03:33:36;2.40;;;2.20;;
15228;SDS011;7717;47.792;12.076;2022-07-29T03:36:01;2.10;;;2.00;;
15228;SDS011;7717;47.792;12.076;2022-07-29T03:38:27;2.30;;;2.20;;
15228;SDS011;7717;47.792;12.076;2022-07-29T03:40:56;4.77;;;2.50;;
15228;SDS011;7717;47.792;12.076;2022-07-29T03:43:21;2.40;;;2.20;;
15228;SDS011;7717;47.792;12.076;2022-07-29T03:45:49;2.03;;;1.90;;
15228;SDS011;7717;47.792;12.076;2022-07-29T03:48:16;4.07;;;2.17;;
15228;SDS011;7717;47.792;12.076;2022-07-29T03:50:42;2.40;;;1.73;;
15228;SDS011;7717;47.792;12.076;2022-07-29T03:53:07;2.27;;;2.07;;
15228;SDS011;7717;47.792;12.076;2022-07-29T03:55:33;2.93;;;2.13;;
15228;SDS011;7717;47.792;12.076;2022-07-29T03:58:01;2.03;;;1.83;;
15228;SDS011;7717;47.792;12.076;2022-07-29T04:00:27;3.53;;;2.33;;
15228;SDS011;7717;47.792;12.076;2022-07-29T04:02:52;2.30;;;2.10;;
15228;SDS011;7717;47.792;12.076;2022-07-29T04:05:18;2.03;;;1.93;;
15228;SDS011;7717;47.792;12.076;2022-07-29T04:07:43;1.80;;;1.70;;
15228;SDS011;7717;47.792;12.076;2022-07-29T04:10:10;1.80;;;1.70;;
15228;SDS011;7717;47.792;12.076;2022-07-29T04:12:36;2.30;;;2.00;;
15228;SDS011;7717;47.792;12.076;2022-07-29T04:15:02;3.73;;;1.87;;
15228;SDS011;7717;47.792;12.076;2022-07-29T04:17:27;2.63;;;1.90;;
15228;SDS011;7717;47.792;12.076;2022-07-29T04:19:52;2.20;;;2.00;;
15228;SDS011;7717;47.792;12.076;2022-07-29T04:22:18;2.40;;;1.97;;
15228;SDS011;7717;47.792;12.076;2022-07-29T04:24:43;3.40;;;2.50;;
15228;SDS011;7717;47.792;12.076;2022-07-29T04:27:08;2.87;;;2.07;;
15228;SDS011;7717;47.792;12.076;2022-07-29T04:29:33;2.00;;;1.90;;
15228;SDS011;7717;47.792;12.076;2022-07-29T04:31:58;2.23;;;1.90;;
15228;SDS011;7717;47.792;12.076;2022-07-29T04:34:24;2.03;;;1.93;;
15228;SDS011;7717;47.792;12.076;2022-07-29T04:36:49;2.53;;;2.33;;
15228;SDS011;7717;47.792;12.076;2022-07-29T04:39:14;2.07;;;1.97;;
15228;SDS011;7717;47.792;12.076;2022-07-29T04:41:39;2.60;;;2.10;;
15228;SDS011;7717;47.792;12.076;2022-07-29T04:44:05;2.07;;;1.87;;
15228;SDS011;7717;47.792;12.076;2022-07-29T04:46:30;2.30;;;2.20;;
15228;SDS011;7717;47.792;12.076;2022-07-29T04:48:56;3.63;;;2.10;;
15228;SDS011;7717;47.792;12.076;2022-07-29T04:51:21;2.20;;;2.00;;
15228;SDS011;7717;47.792;12.076;2022-07-29T04:53:46;1.87;;;1.77;;
15228;SDS011;7717;47.792;12.076;2022-07-29T04:56:11;2.40;;;2.20;;
15228;SDS011;7717;47.792;12.076;2022-07-29T04:58:37;2.10;;;2.00;;
15228;SDS011;7717;47.792;12.076;2022-07-29T05:01:02;2.97;;;2.10;;
15228;SDS011;7717;47.792;12.076;2022-07-29T05:03:27;2.07;;;1.97;;
15228;SDS011;7717;47.792;12.076;2022-07-29T05:05:53;2.90;;;1.90;;
15228;SDS011;7717;47.792;12.076;2022-07-29T05:08:18;2.23;;;2.03;;
15228;SDS011;7717;47.792;12.076;2022-07-29T05:10:43;2.17;;;1.90;;
15228;SDS011;7717;47.792;12.076;2022-07-29T05:13:08;2.10;;;1.90;;
15228;SDS011;7717;47.792;12.076;2022-07-29T05:15:34;3.27;;;2.07;;
15228;SDS011;7717;47.792;12.076;2022-07-29T05:18:00;1.80;;;1.70;;
15228;SDS011;7717;47.792;12.076;2022-07-29T05:20:25;2.20;;;1.83;;
15228;SDS011;7717;47.792;12.076;2022-07-29T05:22:55;2.67;;;1.60;;
15228;SDS011;7717;47.792;12.076;2022-07-29T05:25:20;2.57;;;1.77;;
15228;SDS011;7717;47.792;12.076;2022-07-29T05:27:46;3.30;;;2.40;;
15228;SDS011;7717;47.792;12.076;2022-07-29T05:30:11;2.07;;;1.93;;
15228;SDS011;7717;47.792;12.076;2022-07-29T05:32:36;2.30;;;2.10;;
15228;SDS011;7717;47.792;12.076;2022-07-29T05:35:02;2.00;;;1.80;;
15228;SDS011;7717;47.792;12.076;2022-07-29T05:37:27;3.17;;;2.03;;
15228;SDS011;7717;47.792;12.076;2022-07-29T05:39:52;2.27;;;2.07;;
15228;SDS011;7717;47.792;12.076;2022-07-29T05:42:17;2.10;;;1.90;;
15228;SDS011;7717;47.792;12.076;2022-07-29T05:44:43;1.90;;;1.73;;
15228;SDS011;7717;47.792;12.076;2022-07-29T05:47:08;2.20;;;2.00;;
15228;SDS011;7717;47.792;12.076;2022-07-29T05:49:33;2.07;;;1.97;;
15228;SDS011;7717;47.792;12.076;2022-07-29T05:51:59;2.50;;;2.00;;
15228;SDS011;7717;47.792;12.076;2022-07-29T05:54:24;1.93;;;1.80;;
15228;SDS011;7717;47.792;12.076;2022-07-29T05:56:49;2.27;;;1.83;;
15228;SDS011;7717;47.792;12.076;2022-07-29T05:59:15;2.40;;;2.20;;
15228;SDS011;7717;47.792;12.076;2022-07-29T06:01:40;1.93;;;1.80;;
15228;SDS011;7717;47.792;12.076;2022-07-29T06:04:06;1.87;;;1.77;;
15228;SDS011;7717;47.792;12.076;2022-07-29T06:06:32;3.20;;;2.00;;
15228;SDS011;7717;47.792;12.076;2022-07-29T06:08:57;2.07;;;1.97;;
15228;SDS011;7717;47.792;12.076;2022-07-29T06:11:22;3.60;;;1.67;;
15228;SDS011;7717;47.792;12.076;2022-07-29T06:13:47;2.00;;;1.90;;
15228;SDS011;7717;47.792;12.076;2022-07-29T06:16:13;2.03;;;1.90;;
15228;SDS011;7717;47.792;12.076;2022-07-29T06:18:38;1.87;;;1.77;;
15228;SDS011;7717;47.792;12.076;2022-07-29T06:21:07;2.20;;;1.70;;
15228;SDS011;7717;47.792;12.076;2022-07-29T06:23:33;2.47;;;1.83;;
15228;SDS011;7717;47.792;12.076;2022-07-29T06:25:58;3.47;;;1.90;;
15228;SDS011;7717;47.792;12.076;2022-07-29T06:28:24;2.47;;;1.90;;
15228;SDS011;7717;47.792;12.076;2022-07-29T06:30:49;4.50;;;1.80;;
15228;SDS011;7717;47.792;12.076;2022-07-29T06:33:18;4.73;;;1.90;;
15228;SDS011;7717;47.792;12.076;2022-07-29T06:35:43;1.67;;;1.57;;
15228;SDS011;7717;47.792;12.076;2022-07-29T06:38:09;5.17;;;2.30;;
15228;SDS011;7717;47.792;12.076;2022-07-29T06:40:36;2.17;;;2.03;;
15228;SDS011;7717;47.792;12.076;2022-07-29T06:43:20;2.93;;;2.07;;
15228;SDS011;7717;47.792;12.076;2022-07-29T06:45:45;2.70;;;1.80;;
15228;SDS011;7717;47.792;12.076;2022-07-29T06:48:11;2.40;;;1.87;;
15228;SDS011;7717;47.792;12.076;2022-07-29T06:50:36;1.83;;;1.73;;
15228;SDS011;7717;47.792;12.076;2022-07-29T06:53:01;2.17;;;1.90;;
15228;SDS011;7717;47.792;12.076;2022-07-29T06:55:26;3.87;;;2.00;;
15228;SDS011;7717;47.792;12.076;2022-07-29T06:57:51;2.83;;;1.87;;
15228;SDS011;7717;47.792;12.076;2022-07-29T07:00:17;2.30;;;2.20;;
15228;SDS011;7717;47.792;12.076;2022-07-29T07:02:43;2.13;;;1.70;;
15228;SDS011;7717;47.792;12.076;2022-07-29T07:05:08;2.27;;;2.07;;
15228;SDS011;7717;47.792;12.076;2022-07-29T07:07:33;2.70;;;1.70;;
15228;SDS011;7717;47.792;12.076;2022-07-29T07:09:59;3.60;;;1.90;;
15228;SDS011;7717;47.792;12.076;2022-07-29T07:12:24;2.90;;;2.20;;
15228;SDS011;7717;47.792;12.076;2022-07-29T07:14:50;2.80;;;2.00;;
15228;SDS011;7717;47.792;12.076;2022-07-29T07:17:15;1.97;;;1.87;;
15228;SDS011;7717;47.792;12.076;2022-07-29T07:19:40;2.27;;;1.87;;
15228;SDS011;7717;47.792;12.076;2022-07-29T07:22:06;2.23;;;2.03;;
15228;SDS011;7717;47.792;12.076;2022-07-29T07:24:31;1.97;;;1.87;;
15228;SDS011;7717;47.792;12.076;2022-07-29T07:26:56;2.40;;;2.20;;
15228;SDS011;7717;47.792;12.076;2022-07-29T07:29:21;2.43;;;1.73;;
15228;SDS011;7717;47.792;12.076;2022-07-29T07:31:46;2.00;;;1.90;;
15228;SDS011;7717;47.792;12.076;2022-07-29T07:34:12;2.53;;;1.93;;
15228;SDS011;7717;47.792;12.076;2022-07-29T07:36:37;2.00;;;1.90;;
15228;SDS011;7717;47.792;12.076;2022-07-29T07:39:02;1.90;;;1.70;;
15228;SDS011;7717;47.792;12.076;2022-07-29T07:41:28;2.73;;;2.03;;
15228;SDS011;7717;47.792;12.076;2022-07-29T07:43:53;1.93;;;1.77;;
15228;SDS011;7717;47.792;12.076;2022-07-29T07:46:19;1.80;;;1.70;;
15228;SDS011;7717;47.792;12.076;2022-07-29T07:48:44;1.70;;;1.60;;
15228;SDS011;7717;47.792;12.076;2022-07-29T07:51:09;2.73;;;1.90;;
15228;SDS011;7717;47.792;12.076;2022-07-29T07:53:34;1.77;;;1.67;;
15228;SDS011;7717;47.792;12.076;2022-07-29T07:56:00;2.42;;;1.77;;
15228;SDS011;7717;47.792;12.076;2022-07-29T07:58:25;2.05;;;1.80;;
15228;SDS011;7717;47.792;12.076;2022-07-29T08:00:50;2.08;;;1.70;;
15228;SDS011;7717;47.792;12.076;2022-07-29T08:03:16;2.28;;;1.60;;
15228;SDS011;7717;47.792;12.076;2022-07-29T08:05:41;1.65;;;1.55;;
15228;SDS011;7717;47.792;12.076;2022-07-29T08:08:06;1.83;;;1.73;;
15228;SDS011;7717;47.792;12.076;2022-07-29T08:10:32;1.70;;;1.60;;
15228;SDS011;7717;47.792;12.076;2022-07-29T08:13:16;1.52;;;1.42;;
15228;SDS011;7717;47.792;12.076;2022-07-29T08:15:41;1.95;;;1.77;;
15228;SDS011;7717;47.792;12.076;2022-07-29T08:18:09;1.92;;;1.83;;
15228;SDS011;7717;47.792;12.076;2022-07-29T08:20:35;2.15;;;1.90;;
15228;SDS011;7717;47.792;12.076;2022-07-29T08:23:01;1.70;;;1.60;;
15228;SDS011;7717;47.792;12.076;2022-07-29T08:25:27;2.38;;;1.77;;
15228;SDS011;7717;47.792;12.076;2022-07-29T08:27:52;1.75;;;1.65;;
15228;SDS011;7717;47.792;12.076;2022-07-29T08:30:17;1.60;;;1.50;;
15228;SDS011;7717;47.792;12.076;2022-07-29T08:32:42;1.65;;;1.55;;
15228;SDS011;7717;47.792;12.076;2022-07-29T08:35:08;2.33;;;1.65;;
15228;SDS011;7717;47.792;12.076;2022-07-29T08:37:33;2.00;;;1.90;;
15228;SDS011;7717;47.792;12.076;2022-07-29T08:39:59;1.98;;;1.88;;
15228;SDS011;7717;47.792;12.076;2022-07-29T08:42:24;1.63;;;1.52;;
15228;SDS011;7717;47.792;12.076;2022-07-29T08:44:49;1.50;;;1.40;;
15228;SDS011;7717;47.792;12.076;2022-07-29T08:47:15;1.92;;;1.83;;
15228;SDS011;7717;47.792;12.076;2022-07-29T08:49:40;1.60;;;1.50;;
15228;SDS011;7717;47.792;12.076;2022-07-29T08:52:06;2.50;;;1.85;;
15228;SDS011;7717;47.792;12.076;2022-07-29T08:54:31;1.80;;;1.70;;
15228;SDS011;7717;47.792;12.076;2022-07-29T08:56:57;1.65;;;1.50;;
15228;SDS011;7717;47.792;12.076;2022-07-29T08:59:24;2.38;;;1.70;;
15228;SDS011;7717;47.792;12.076;2022-07-29T09:01:50;2.70;;;2.17;;
15228;SDS011;7717;47.792;12.076;2022-07-29T09:04:17;1.90;;;1.80;;
15228;SDS011;7717;47.792;12.076;2022-07-29T09:06:45;2.83;;;1.95;;
15228;SDS011;7717;47.792;12.076;2022-07-29T09:09:11;1.48;;;1.35;;
15228;SDS011;7717;47.792;12.076;2022-07-29T09:11:36;1.73;;;1.63;;
15228;SDS011;7717;47.792;12.076;2022-07-29T09:14:02;1.80;;;1.70;;
15228;SDS011;7717;47.792;12.076;2022-07-29T09:16:43;1.73;;;1.63;;
15228;SDS011;7717;47.792;12.076;2022-07-29T09:19:30;1.48;;;1.38;;
15228;SDS011;7717;47.792;12.076;2022-07-29T09:21:54;2.08;;;1.75;;
15228;SDS011;7717;47.792;12.076;2022-07-29T09:24:23;1.67;;;1.50;;
15228;SDS011;7717;47.792;12.076;2022-07-29T09:26:49;1.80;;;1.70;;
15228;SDS011;7717;47.792;12.076;2022-07-29T09:29:15;1.42;;;1.33;;
15228;SDS011;7717;47.792;12.076;2022-07-29T09:31:43;1.65;;;1.55;;
15228;SDS011;7717;47.792;12.076;2022-07-29T09:34:09;1.67;;;1.30;;
15228;SDS011;7717;47.792;12.076;2022-07-29T09:39:05;1.50;;;1.40;;
15228;SDS011;7717;47.792;12.076;2022-07-29T09:41:43;2.05;;;1.35;;
15228;SDS011;7717;47.792;12.076;2022-07-29T09:44:08;1.70;;;1.20;;
15228;SDS011;7717;47.792;12.076;2022-07-29T09:46:34;1.40;;;1.30;;
15228;SDS011;7717;47.792;12.076;2022-07-29T09:49:08;1.35;;;1.35;;
15228;SDS011;7717;47.792;12.076;2022-07-29T09:51:34;1.55;;;1.10;;
15228;SDS011;7717;47.792;12.076;2022-07-29T09:53:59;1.50;;;1.45;;
15228;SDS011;7717;47.792;12.076;2022-07-29T09:56:41;1.27;;;1.20;;
15228;SDS011;7717;47.792;12.076;2022-07-29T09:59:07;2.60;;;1.10;;
15228;SDS011;7717;47.792;12.076;2022-07-29T10:01:33;1.27;;;1.27;;
15228;SDS011;7717;47.792;12.076;2022-07-29T10:03:58;2.03;;;1.13;;
15228;SDS011;7717;47.792;12.076;2022-07-29T10:06:24;1.25;;;1.25;;
15228;SDS011;7717;47.792;12.076;2022-07-29T10:08:49;1.60;;;1.45;;
15228;SDS011;7717;47.792;12.076;2022-07-29T10:11:15;1.40;;;1.30;;
15228;SDS011;7717;47.792;12.076;2022-07-29T10:13:41;1.77;;;1.67;;
15228;SDS011;7717;47.792;12.076;2022-07-29T10:16:07;1.15;;;1.15;;
15228;SDS011;7717;47.792;12.076;2022-07-29T10:18:33;1.15;;;1.05;;
15228;SDS011;7717;47.792;12.076;2022-07-29T10:20:58;2.15;;;1.40;;
15228;SDS011;7717;47.792;12.076;2022-07-29T10:23:26;1.40;;;1.30;;
15228;SDS011;7717;47.792;12.076;2022-07-29T10:25:51;1.27;;;1.20;;
15228;SDS011;7717;47.792;12.076;2022-07-29T10:28:16;1.52;;;1.42;;
15228;SDS011;7717;47.792;12.076;2022-07-29T10:30:41;1.30;;;1.30;;
15228;SDS011;7717;47.792;12.076;2022-07-29T10:33:21;1.30;;;1.20;;
15228;SDS011;7717;47.792;12.076;2022-07-29T10:46:23;1.52;;;1.42;;
15228;SDS011;7717;47.792;12.076;2022-07-29T10:54:17;1.15;;;1.10;;
15228;SDS011;7717;47.792;12.076;2022-07-29T10:56:42;1.67;;;1.58;;
15228;SDS011;7717;47.792;12.076;2022-07-29T11:01:45;1.63;;;1.40;;
15228;SDS011;7717;47.792;12.076;2022-07-29T11:04:10;1.45;;;1.35;;
15228;SDS011;7717;47.792;12.076;2022-07-29T11:09:21;1.48;;;1.40;;
15228;SDS011;7717;47.792;12.076;2022-07-29T11:11:47;1.75;;;1.30;;
15228;SDS011;7717;47.792;12.076;2022-07-29T11:14:12;1.73;;;1.63;;
15228;SDS011;7717;47.792;12.076;2022-07-29T11:19:21;1.73;;;1.40;;
15228;SDS011;7717;47.792;12.076;2022-07-29T11:21:47;1.40;;;1.40;;
15228;SDS011;7717;47.792;12.076;2022-07-29T11:24:13;1.55;;;1.45;;
15228;SDS011;7717;47.792;12.076;2022-07-29T11:26:39;1.70;;;1.60;;
15228;SDS011;7717;47.792;12.076;2022-07-29T11:29:20;2.50;;;2.40;;
15228;SDS011;7717;47.792;12.076;2022-07-29T11:31:49;1.88;;;1.77;;
15228;SDS011;7717;47.792;12.076;2022-07-29T11:37:13;1.95;;;1.65;;
15228;SDS011;7717;47.792;12.076;2022-07-29T11:45:00;2.10;;;2.00;;
15228;SDS011;7717;47.792;12.076;2022-07-29T11:47:26;3.83;;;2.22;;
15228;SDS011;7717;47.792;12.076;2022-07-29T11:49:52;2.90;;;2.08;;
15228;SDS011;7717;47.792;12.076;2022-07-29T11:52:18;2.58;;;2.10;;
15228;SDS011;7717;47.792;12.076;2022-07-29T11:54:43;2.63;;;2.20;;
15228;SDS011;7717;47.792;12.076;2022-07-29T11:57:09;3.10;;;2.88;;
15228;SDS011;7717;47.792;12.076;2022-07-29T11:59:44;1.80;;;1.70;;
15228;SDS011;7717;47.792;12.076;2022-07-29T12:02:10;2.90;;;2.40;;
15228;SDS011;7717;47.792;12.076;2022-07-29T12:04:57;2.97;;;2.60;;
15228;SDS011;7717;47.792;12.076;2022-07-29T12:07:28;2.55;;;2.20;;
15228;SDS011;7717;47.792;12.076;2022-07-29T12:09:53;1.80;;;1.70;;
15228;SDS011;7717;47.792;12.076;2022-07-29T12:12:19;2.03;;;1.92;;
15228;SDS011;7717;47.792;12.076;2022-07-29T12:14:44;2.50;;;2.33;;
15228;SDS011;7717;47.792;12.076;2022-07-29T12:17:29;2.30;;;2.10;;
15228;SDS011;7717;47.792;12.076;2022-07-29T12:20:02;2.13;;;2.03;;
15228;SDS011;7717;47.792;12.076;2022-07-29T12:22:32;2.20;;;2.00;;
15228;SDS011;7717;47.792;12.076;2022-07-29T12:25:07;3.22;;;2.17;;
15228;SDS011;7717;47.792;12.076;2022-07-29T12:27:34;2.63;;;2.17;;
15228;SDS011;7717;47.792;12.076;2022-07-29T12:30:05;2.30;;;2.10;;
15228;SDS011;7717;47.792;12.076;2022-07-29T12:32:44;2.58;;;2.35;;
15228;SDS011;7717;47.792;12.076;2022-07-29T12:35:22;2.13;;;2.03;;
15228;SDS011;7717;47.792;12.076;2022-07-29T12:37:51;4.65;;;2.20;;
15228;SDS011;7717;47.792;12.076;2022-07-29T12:40:17;2.10;;;1.88;;
15228;SDS011;7717;47.792;12.076;2022-07-29T12:45:32;2.10;;;2.00;;
15228;SDS011;7717;47.792;12.076;2022-07-29T12:48:01;2.08;;;1.83;;
15228;SDS011;7717;47.792;12.076;2022-07-29T12:50:35;2.00;;;1.90;;
15228;SDS011;7717;47.792;12.076;2022-07-29T12:53:13;2.00;;;1.90;;
15228;SDS011;7717;47.792;12.076;2022-07-29T12:55:42;3.00;;;2.28;;
15228;SDS011;7717;47.792;12.076;2022-07-29T12:58:08;2.13;;;2.03;;
15228;SDS011;7717;47.792;12.076;2022-07-29T13:00:34;2.10;;;2.00;;
15228;SDS011;7717;47.792;12.076;2022-07-29T13:03:02;2.53;;;2.30;;
15228;SDS011;7717;47.792;12.076;2022-07-29T13:05:41;2.65;;;2.45;;
15228;SDS011;7717;47.792;12.076;2022-07-29T13:08:12;2.90;;;2.08;;
15228;SDS011;7717;47.792;12.076;2022-07-29T13:10:39;2.10;;;2.00;;
15228;SDS011;7717;47.792;12.076;2022-07-29T13:13:05;2.72;;;1.85;;
15228;SDS011;7717;47.792;12.076;2022-07-29T13:15:31;1.90;;;1.80;;
15228;SDS011;7717;47.792;12.076;2022-07-29T13:17:57;2.10;;;2.00;;
15228;SDS011;7717;47.792;12.076;2022-07-29T13:20:26;2.17;;;2.08;;
15228;SDS011;7717;47.792;12.076;2022-07-29T13:22:55;2.38;;;2.15;;
15228;SDS011;7717;47.792;12.076;2022-07-29T13:25:28;3.33;;;2.25;;
15228;SDS011;7717;47.792;12.076;2022-07-29T13:28:02;2.40;;;1.80;;
15228;SDS011;7717;47.792;12.076;2022-07-29T13:30:32;2.13;;;1.98;;
15228;SDS011;7717;47.792;12.076;2022-07-29T13:32:58;1.92;;;1.83;;
15228;SDS011;7717;47.792;12.076;2022-07-29T13:35:29;2.13;;;1.98;;
15228;SDS011;7717;47.792;12.076;2022-07-29T13:37:57;2.17;;;2.08;;
15228;SDS011;7717;47.792;12.076;2022-07-29T13:40:22;2.35;;;2.20;;
15228;SDS011;7717;47.792;12.076;2022-07-29T13:42:48;4.20;;;1.88;;
15228;SDS011;7717;47.792;12.076;2022-07-29T13:45:16;2.20;;;2.00;;
15228;SDS011;7717;47.792;12.076;2022-07-29T13:47:46;2.97;;;2.20;;
15228;SDS011;7717;47.792;12.076;2022-07-29T13:50:11;2.65;;;1.90;;
15228;SDS011;7717;47.792;12.076;2022-07-29T13:52:40;2.28;;;2.08;;
15228;SDS011;7717;47.792;12.076;2022-07-29T13:55:15;3.17;;;2.05;;
15228;SDS011;7717;47.792;12.076;2022-07-29T13:57:46;2.10;;;2.00;;
15228;SDS011;7717;47.792;12.076;2022-07-29T14:00:19;2.28;;;2.03;;
15228;SDS011;7717;47.792;12.076;2022-07-29T14:02:45;2.55;;;2.25;;
15228;SDS011;7717;47.792;12.076;2022-07-29T14:05:11;3.10;;;2.10;;
15228;SDS011;7717;47.792;12.076;2022-07-29T14:07:46;3.10;;;2.40;;
15228;SDS011;7717;47.792;12.076;2022-07-29T14:10:11;2.20;;;2.10;;
15228;SDS011;7717;47.792;12.076;2022-07-29T14:12:39;2.38;;;2.10;;
15228;SDS011;7717;47.792;12.076;2022-07-29T14:15:09;2.50;;;2.30;;
15228;SDS011;7717;47.792;12.076;2022-07-29T14:17:35;1.80;;;1.70;;
15228;SDS011;7717;47.792;12.076;2022-07-29T14:20:00;3.75;;;1.83;;
15228;SDS011;7717;47.792;12.076;2022-07-29T14:22:28;2.83;;;2.13;;
15228;SDS011;7717;47.792;12.076;2022-07-29T14:24:58;2.30;;;2.00;;
15228;SDS011;7717;47.792;12.076;2022-07-29T14:27:24;1.80;;;1.70;;
15228;SDS011;7717;47.792;12.076;2022-07-29T14:29:49;2.65;;;1.77;;
15228;SDS011;7717;47.792;12.076;2022-07-29T14:32:15;1.70;;;1.60;;
15228;SDS011;7717;47.792;12.076;2022-07-29T14:34:46;3.15;;;1.83;;
15228;SDS011;7717;47.792;12.076;2022-07-29T14:37:14;1.77;;;1.67;;
15228;SDS011;7717;47.792;12.076;2022-07-29T14:39:45;1.85;;;1.75;;
15228;SDS011;7717;47.792;12.076;2022-07-29T14:42:10;1.70;;;1.60;;
15228;SDS011;7717;47.792;12.076;2022-07-29T14:44:40;1.90;;;1.63;;
15228;SDS011;7717;47.792;12.076;2022-07-29T14:47:06;2.15;;;1.77;;
15228;SDS011;7717;47.792;12.076;2022-07-29T14:49:31;2.65;;;2.05;;
15228;SDS011;7717;47.792;12.076;2022-07-29T14:51:57;2.35;;;1.80;;
15228;SDS011;7717;47.792;12.076;2022-07-29T14:54:27;2.22;;;1.88;;
15228;SDS011;7717;47.792;12.076;2022-07-29T14:56:53;1.70;;;1.60;;
15228;SDS011;7717;47.792;12.076;2022-07-29T14:59:34;2.08;;;1.95;;
15228;SDS011;7717;47.792;12.076;2022-07-29T15:02:13;1.50;;;1.50;;
15228;SDS011;7717;47.792;12.076;2022-07-29T15:04:47;2.20;;;1.95;;
15228;SDS011;7717;47.792;12.076;2022-07-29T15:10:22;2.03;;;1.92;;
15228;SDS011;7717;47.792;12.076;2022-07-29T15:12:58;1.60;;;1.50;;
15228;SDS011;7717;47.792;12.076;2022-07-29T15:15:23;2.00;;;1.90;;
15228;SDS011;7717;47.792;12.076;2022-07-29T15:17:49;2.25;;;2.05;;
15228;SDS011;7717;47.792;12.076;2022-07-29T15:20:14;3.25;;;2.00;;
15228;SDS011;7717;47.792;12.076;2022-07-29T15:22:40;2.00;;;1.90;;
15228;SDS011;7717;47.792;12.076;2022-07-29T15:25:07;2.38;;;2.25;;
15228;SDS011;7717;47.792;12.076;2022-07-29T15:27:32;2.20;;;2.00;;
15228;SDS011;7717;47.792;12.076;2022-07-29T15:29:58;2.28;;;1.95;;
15228;SDS011;7717;47.792;12.076;2022-07-29T15:32:23;1.75;;;1.65;;
15228;SDS011;7717;47.792;12.076;2022-07-29T15:34:49;2.00;;;1.90;;
15228;SDS011;7717;47.792;12.076;2022-07-29T15:37:14;2.10;;;1.95;;
15228;SDS011;7717;47.792;12.076;2022-07-29T15:39:40;4.00;;;2.10;;
15228;SDS011;7717;47.792;12.076;2022-07-29T15:42:05;2.70;;;1.80;;
15228;SDS011;7717;47.792;12.076;2022-07-29T15:44:31;3.35;;;2.10;;
15228;SDS011;7717;47.792;12.076;2022-07-29T15:46:57;2.38;;;1.88;;